sensor_id;sensor_type;location;lat;lon;timestamp;temperature;humidity
68766;DHT22;55756;45.582;11.484;2022-12-10T00:01:42;7.30;89.10
68766;DHT22;55756;45.582;11.484;2022-12-10T00:04:08;7.30;89.20
68766;DHT22;55756;45.582;11.484;2022-12-10T00:06:34;7.40;89.10
68766;DHT22;55756;45.582;11.484;2022-12-10T00:09:01;7.40;89.10
68766;DHT22;55756;45.582;11.484;2022-12-10T00:11:27;7.30;89.20
68766;DHT22;55756;45.582;11.484;2022-12-10T00:13:53;7.30;89.20
68766;DHT22;55756;45.582;11.484;2022-12-10T00:16:19;7.30;89.00
68766;DHT22;55756;45.582;11.484;2022-12-10T00:18:46;7.30;89.20
68766;DHT22;55756;45.582;11.484;2022-12-10T00:21:14;7.30;89.40
68766;DHT22;55756;45.582;11.484;2022-12-10T00:23:39;7.30;89.40
68766;DHT22;55756;45.582;11.484;2022-12-10T00:26:06;7.30;89.20
68766;DHT22;55756;45.582;11.484;2022-12-10T00:28:32;7.40;89.30
68766;DHT22;55756;45.582;11.484;2022-12-10T00:31:05;7.30;89.20
68766;DHT22;55756;45.582;11.484;2022-12-10T00:33:31;7.30;89.30
68766;DHT22;55756;45.582;11.484;2022-12-10T00:36:00;7.40;89.20
68766;DHT22;55756;45.582;11.484;2022-12-10T00:38:26;7.40;89.20
68766;DHT22;55756;45.582;11.484;2022-12-10T00:40:52;7.40;89.30
68766;DHT22;55756;45.582;11.484;2022-12-10T00:43:17;7.30;89.40
68766;DHT22;55756;45.582;11.484;2022-12-10T00:45:43;7.40;89.20
68766;DHT22;55756;45.582;11.484;2022-12-10T00:48:09;7.40;89.10
68766;DHT22;55756;45.582;11.484;2022-12-10T00:50:34;7.50;89.00
68766;DHT22;55756;45.582;11.484;2022-12-10T00:53:00;7.40;89.00
68766;DHT22;55756;45.582;11.484;2022-12-10T00:55:26;7.40;89.30
68766;DHT22;55756;45.582;11.484;2022-12-10T00:57:52;7.30;89.40
68766;DHT22;55756;45.582;11.484;2022-12-10T01:00:17;7.20;89.90
68766;DHT22;55756;45.582;11.484;2022-12-10T01:02:43;7.20;89.90
68766;DHT22;55756;45.582;11.484;2022-12-10T01:05:09;7.20;89.70
68766;DHT22;55756;45.582;11.484;2022-12-10T01:07:35;7.20;90.10
68766;DHT22;55756;45.582;11.484;2022-12-10T01:10:01;7.30;90.00
68766;DHT22;55756;45.582;11.484;2022-12-10T01:12:26;7.30;89.70
68766;DHT22;55756;45.582;11.484;2022-12-10T01:14:53;7.20;89.30
68766;DHT22;55756;45.582;11.484;2022-12-10T01:17:19;7.10;90.00
68766;DHT22;55756;45.582;11.484;2022-12-10T01:19:46;7.10;90.60
68766;DHT22;55756;45.582;11.484;2022-12-10T01:22:12;7.30;90.30
68766;DHT22;55756;45.582;11.484;2022-12-10T01:24:38;7.20;90.20
68766;DHT22;55756;45.582;11.484;2022-12-10T01:27:04;7.30;90.30
68766;DHT22;55756;45.582;11.484;2022-12-10T01:29:30;7.30;90.60
68766;DHT22;55756;45.582;11.484;2022-12-10T01:31:56;7.30;90.30
68766;DHT22;55756;45.582;11.484;2022-12-10T01:34:22;7.30;90.30
68766;DHT22;55756;45.582;11.484;2022-12-10T01:36:50;7.10;90.70
68766;DHT22;55756;45.582;11.484;2022-12-10T01:39:16;7.10;91.30
68766;DHT22;55756;45.582;11.484;2022-12-10T01:41:43;7.20;91.20
68766;DHT22;55756;45.582;11.484;2022-12-10T01:46:36;7.20;91.30
68766;DHT22;55756;45.582;11.484;2022-12-10T01:49:03;7.20;91.00
68766;DHT22;55756;45.582;11.484;2022-12-10T01:51:30;7.20;91.20
68766;DHT22;55756;45.582;11.484;2022-12-10T01:53:56;7.20;91.20
68766;DHT22;55756;45.582;11.484;2022-12-10T01:56:22;7.30;91.00
68766;DHT22;55756;45.582;11.484;2022-12-10T01:58:49;7.30;90.90
68766;DHT22;55756;45.582;11.484;2022-12-10T02:06:15;7.30;90.80
68766;DHT22;55756;45.582;11.484;2022-12-10T02:08:45;7.30;91.00
68766;DHT22;55756;45.582;11.484;2022-12-10T02:11:16;7.20;90.90
68766;DHT22;55756;45.582;11.484;2022-12-10T02:13:52;7.20;91.40
68766;DHT22;55756;45.582;11.484;2022-12-10T02:17:04;7.10;91.40
68766;DHT22;55756;45.582;11.484;2022-12-10T02:19:16;7.10;91.30
68766;DHT22;55756;45.582;11.484;2022-12-10T02:21:44;7.10;91.70
68766;DHT22;55756;45.582;11.484;2022-12-10T02:24:14;7.10;91.60
68766;DHT22;55756;45.582;11.484;2022-12-10T02:29:36;7.20;91.20
68766;DHT22;55756;45.582;11.484;2022-12-10T02:32:07;7.30;91.20
68766;DHT22;55756;45.582;11.484;2022-12-10T02:34:36;7.30;91.10
68766;DHT22;55756;45.582;11.484;2022-12-10T02:37:05;7.40;90.90
68766;DHT22;55756;45.582;11.484;2022-12-10T02:39:34;7.40;90.70
68766;DHT22;55756;45.582;11.484;2022-12-10T02:42:03;7.50;90.40
68766;DHT22;55756;45.582;11.484;2022-12-10T02:44:30;7.50;90.50
68766;DHT22;55756;45.582;11.484;2022-12-10T02:46:57;7.40;90.50
68766;DHT22;55756;45.582;11.484;2022-12-10T02:49:29;7.40;90.50
68766;DHT22;55756;45.582;11.484;2022-12-10T02:51:59;7.50;90.30
68766;DHT22;55756;45.582;11.484;2022-12-10T02:57:00;7.40;90.10
68766;DHT22;55756;45.582;11.484;2022-12-10T02:59:31;7.50;90.10
68766;DHT22;55756;45.582;11.484;2022-12-10T03:04:45;7.50;89.90
68766;DHT22;55756;45.582;11.484;2022-12-10T03:07:15;7.50;90.00
68766;DHT22;55756;45.582;11.484;2022-12-10T03:10:28;7.40;89.90
68766;DHT22;55756;45.582;11.484;2022-12-10T03:12:38;7.40;89.90
68766;DHT22;55756;45.582;11.484;2022-12-10T03:15:05;7.40;89.90
68766;DHT22;55756;45.582;11.484;2022-12-10T03:17:33;7.50;89.80
68766;DHT22;55756;45.582;11.484;2022-12-10T03:19:59;7.40;90.00
68766;DHT22;55756;45.582;11.484;2022-12-10T03:22:25;7.40;89.90
68766;DHT22;55756;45.582;11.484;2022-12-10T03:24:52;7.40;90.20
68766;DHT22;55756;45.582;11.484;2022-12-10T03:27:19;7.40;90.00
68766;DHT22;55756;45.582;11.484;2022-12-10T03:29:46;7.40;90.30
68766;DHT22;55756;45.582;11.484;2022-12-10T03:32:13;7.40;90.20
68766;DHT22;55756;45.582;11.484;2022-12-10T03:34:39;7.40;90.40
68766;DHT22;55756;45.582;11.484;2022-12-10T03:37:05;7.40;90.30
68766;DHT22;55756;45.582;11.484;2022-12-10T03:39:31;7.30;90.60
68766;DHT22;55756;45.582;11.484;2022-12-10T03:41:57;7.40;90.40
68766;DHT22;55756;45.582;11.484;2022-12-10T03:44:29;7.50;90.20
68766;DHT22;55756;45.582;11.484;2022-12-10T03:46:55;7.40;90.30
68766;DHT22;55756;45.582;11.484;2022-12-10T03:49:21;7.40;90.30
68766;DHT22;55756;45.582;11.484;2022-12-10T03:51:47;7.40;90.40
68766;DHT22;55756;45.582;11.484;2022-12-10T03:54:12;7.30;90.40
68766;DHT22;55756;45.582;11.484;2022-12-10T03:56:38;7.40;90.50
68766;DHT22;55756;45.582;11.484;2022-12-10T03:59:04;7.40;90.20
68766;DHT22;55756;45.582;11.484;2022-12-10T04:01:29;7.40;90.50
68766;DHT22;55756;45.582;11.484;2022-12-10T04:03:55;7.40;90.60
68766;DHT22;55756;45.582;11.484;2022-12-10T04:06:21;7.40;90.50
68766;DHT22;55756;45.582;11.484;2022-12-10T04:08:47;7.40;90.50
68766;DHT22;55756;45.582;11.484;2022-12-10T04:11:13;7.50;90.40
68766;DHT22;55756;45.582;11.484;2022-12-10T04:13:39;7.50;90.40
68766;DHT22;55756;45.582;11.484;2022-12-10T04:16:24;7.40;90.60
68766;DHT22;55756;45.582;11.484;2022-12-10T04:18:57;7.40;90.40
68766;DHT22;55756;45.582;11.484;2022-12-10T04:21:24;7.30;90.60
68766;DHT22;55756;45.582;11.484;2022-12-10T04:24:09;7.40;90.70
68766;DHT22;55756;45.582;11.484;2022-12-10T04:26:54;7.40;90.50
68766;DHT22;55756;45.582;11.484;2022-12-10T04:29:23;7.40;90.80
68766;DHT22;55756;45.582;11.484;2022-12-10T04:31:49;7.50;90.40
68766;DHT22;55756;45.582;11.484;2022-12-10T04:34:15;7.50;90.50
68766;DHT22;55756;45.582;11.484;2022-12-10T04:36:41;7.50;90.60
68766;DHT22;55756;45.582;11.484;2022-12-10T04:39:06;7.50;90.50
68766;DHT22;55756;45.582;11.484;2022-12-10T04:41:32;7.50;90.40
68766;DHT22;55756;45.582;11.484;2022-12-10T04:43:58;7.60;90.30
68766;DHT22;55756;45.582;11.484;2022-12-10T04:46:23;7.60;90.30
68766;DHT22;55756;45.582;11.484;2022-12-10T04:48:49;7.50;90.40
68766;DHT22;55756;45.582;11.484;2022-12-10T04:51:15;7.40;90.30
68766;DHT22;55756;45.582;11.484;2022-12-10T04:53:40;7.50;90.30
68766;DHT22;55756;45.582;11.484;2022-12-10T04:56:06;7.50;90.40
68766;DHT22;55756;45.582;11.484;2022-12-10T04:58:32;7.60;90.30
68766;DHT22;55756;45.582;11.484;2022-12-10T05:01:05;7.60;90.20
68766;DHT22;55756;45.582;11.484;2022-12-10T05:03:31;7.60;90.10
68766;DHT22;55756;45.582;11.484;2022-12-10T05:06:01;7.60;90.40
68766;DHT22;55756;45.582;11.484;2022-12-10T05:08:27;7.50;90.30
68766;DHT22;55756;45.582;11.484;2022-12-10T05:10:53;7.50;90.20
68766;DHT22;55756;45.582;11.484;2022-12-10T05:13:18;7.50;90.30
68766;DHT22;55756;45.582;11.484;2022-12-10T05:15:44;7.60;90.30
68766;DHT22;55756;45.582;11.484;2022-12-10T05:18:10;7.50;90.40
68766;DHT22;55756;45.582;11.484;2022-12-10T05:20:35;7.50;90.40
68766;DHT22;55756;45.582;11.484;2022-12-10T05:23:01;7.50;90.40
68766;DHT22;55756;45.582;11.484;2022-12-10T05:25:45;7.50;90.50
68766;DHT22;55756;45.582;11.484;2022-12-10T05:28:20;7.50;90.50
68766;DHT22;55756;45.582;11.484;2022-12-10T05:30:46;7.50;90.50
68766;DHT22;55756;45.582;11.484;2022-12-10T05:33:12;7.50;90.30
68766;DHT22;55756;45.582;11.484;2022-12-10T05:35:37;7.60;90.20
68766;DHT22;55756;45.582;11.484;2022-12-10T05:38:03;7.50;90.40
68766;DHT22;55756;45.582;11.484;2022-12-10T05:40:33;7.60;90.20
68766;DHT22;55756;45.582;11.484;2022-12-10T05:42:59;7.60;90.30
68766;DHT22;55756;45.582;11.484;2022-12-10T05:45:25;7.50;90.50
68766;DHT22;55756;45.582;11.484;2022-12-10T05:47:50;7.40;90.40
68766;DHT22;55756;45.582;11.484;2022-12-10T05:50:16;7.40;90.70
68766;DHT22;55756;45.582;11.484;2022-12-10T05:52:42;7.40;90.70
68766;DHT22;55756;45.582;11.484;2022-12-10T05:55:08;7.30;90.80
68766;DHT22;55756;45.582;11.484;2022-12-10T05:57:35;7.40;90.80
68766;DHT22;55756;45.582;11.484;2022-12-10T06:00:01;7.40;90.70
68766;DHT22;55756;45.582;11.484;2022-12-10T06:02:26;7.40;90.90
68766;DHT22;55756;45.582;11.484;2022-12-10T06:04:52;7.30;90.90
68766;DHT22;55756;45.582;11.484;2022-12-10T06:07:18;7.40;90.90
68766;DHT22;55756;45.582;11.484;2022-12-10T06:09:44;7.40;91.00
68766;DHT22;55756;45.582;11.484;2022-12-10T06:12:10;7.40;90.90
68766;DHT22;55756;45.582;11.484;2022-12-10T06:14:35;7.40;90.80
68766;DHT22;55756;45.582;11.484;2022-12-10T06:17:01;7.40;90.90
68766;DHT22;55756;45.582;11.484;2022-12-10T06:19:27;7.40;90.80
68766;DHT22;55756;45.582;11.484;2022-12-10T06:21:52;7.40;90.70
68766;DHT22;55756;45.582;11.484;2022-12-10T06:24:18;7.40;90.90
68766;DHT22;55756;45.582;11.484;2022-12-10T06:26:44;7.40;90.70
68766;DHT22;55756;45.582;11.484;2022-12-10T06:29:09;7.30;90.90
68766;DHT22;55756;45.582;11.484;2022-12-10T06:31:35;7.30;90.70
68766;DHT22;55756;45.582;11.484;2022-12-10T06:34:00;7.40;90.60
68766;DHT22;55756;45.582;11.484;2022-12-10T06:36:26;7.40;90.60
68766;DHT22;55756;45.582;11.484;2022-12-10T06:38:52;7.40;90.60
68766;DHT22;55756;45.582;11.484;2022-12-10T06:41:18;7.40;90.50
68766;DHT22;55756;45.582;11.484;2022-12-10T06:43:46;7.40;90.50
68766;DHT22;55756;45.582;11.484;2022-12-10T06:46:12;7.40;90.50
68766;DHT22;55756;45.582;11.484;2022-12-10T06:48:40;7.50;90.50
68766;DHT22;55756;45.582;11.484;2022-12-10T06:51:06;7.50;90.40
68766;DHT22;55756;45.582;11.484;2022-12-10T06:53:32;7.50;90.30
68766;DHT22;55756;45.582;11.484;2022-12-10T06:55:59;7.50;90.20
68766;DHT22;55756;45.582;11.484;2022-12-10T06:58:26;7.50;90.20
68766;DHT22;55756;45.582;11.484;2022-12-10T07:00:52;7.50;90.30
68766;DHT22;55756;45.582;11.484;2022-12-10T07:03:17;7.50;90.20
68766;DHT22;55756;45.582;11.484;2022-12-10T07:05:43;7.50;90.30
68766;DHT22;55756;45.582;11.484;2022-12-10T07:08:09;7.60;90.00
68766;DHT22;55756;45.582;11.484;2022-12-10T07:10:36;7.60;90.00
68766;DHT22;55756;45.582;11.484;2022-12-10T07:13:01;7.60;90.10
68766;DHT22;55756;45.582;11.484;2022-12-10T07:15:27;7.60;90.00
68766;DHT22;55756;45.582;11.484;2022-12-10T07:17:53;7.70;89.90
68766;DHT22;55756;45.582;11.484;2022-12-10T07:20:19;7.70;89.80
68766;DHT22;55756;45.582;11.484;2022-12-10T07:22:45;7.70;89.90
68766;DHT22;55756;45.582;11.484;2022-12-10T07:25:10;7.80;89.80
68766;DHT22;55756;45.582;11.484;2022-12-10T07:27:36;7.80;89.90
68766;DHT22;55756;45.582;11.484;2022-12-10T07:30:02;7.80;89.70
68766;DHT22;55756;45.582;11.484;2022-12-10T07:32:28;7.80;89.70
68766;DHT22;55756;45.582;11.484;2022-12-10T07:34:54;7.90;89.70
68766;DHT22;55756;45.582;11.484;2022-12-10T07:37:19;7.90;89.60
68766;DHT22;55756;45.582;11.484;2022-12-10T07:39:45;7.90;89.50
68766;DHT22;55756;45.582;11.484;2022-12-10T07:42:11;7.90;89.70
68766;DHT22;55756;45.582;11.484;2022-12-10T07:44:37;7.90;89.70
68766;DHT22;55756;45.582;11.484;2022-12-10T07:47:03;7.90;89.60
68766;DHT22;55756;45.582;11.484;2022-12-10T07:49:28;8.00;89.50
68766;DHT22;55756;45.582;11.484;2022-12-10T07:51:54;7.90;89.70
68766;DHT22;55756;45.582;11.484;2022-12-10T07:54:20;7.90;89.60
68766;DHT22;55756;45.582;11.484;2022-12-10T07:56:46;7.90;89.60
68766;DHT22;55756;45.582;11.484;2022-12-10T07:59:11;7.90;89.70
68766;DHT22;55756;45.582;11.484;2022-12-10T08:01:37;7.90;89.70
68766;DHT22;55756;45.582;11.484;2022-12-10T08:04:03;7.90;89.70
68766;DHT22;55756;45.582;11.484;2022-12-10T08:06:29;7.90;89.50
68766;DHT22;55756;45.582;11.484;2022-12-10T08:08:54;7.90;89.80
68766;DHT22;55756;45.582;11.484;2022-12-10T08:11:20;7.90;89.80
68766;DHT22;55756;45.582;11.484;2022-12-10T08:13:47;8.00;89.70
68766;DHT22;55756;45.582;11.484;2022-12-10T08:16:14;8.10;89.60
68766;DHT22;55756;45.582;11.484;2022-12-10T08:18:40;8.00;89.80
68766;DHT22;55756;45.582;11.484;2022-12-10T08:21:11;8.10;89.40
68766;DHT22;55756;45.582;11.484;2022-12-10T08:23:38;8.00;89.50
68766;DHT22;55756;45.582;11.484;2022-12-10T08:26:07;8.10;89.60
68766;DHT22;55756;45.582;11.484;2022-12-10T08:28:34;8.20;89.70
68766;DHT22;55756;45.582;11.484;2022-12-10T08:31:00;8.30;89.50
68766;DHT22;55756;45.582;11.484;2022-12-10T08:33:25;8.30;89.40
68766;DHT22;55756;45.582;11.484;2022-12-10T08:35:51;8.30;89.40
68766;DHT22;55756;45.582;11.484;2022-12-10T08:38:17;8.30;89.30
68766;DHT22;55756;45.582;11.484;2022-12-10T08:40:43;8.30;89.20
68766;DHT22;55756;45.582;11.484;2022-12-10T08:43:09;8.30;89.10
68766;DHT22;55756;45.582;11.484;2022-12-10T08:45:35;8.40;88.90
68766;DHT22;55756;45.582;11.484;2022-12-10T08:48:01;8.40;88.80
68766;DHT22;55756;45.582;11.484;2022-12-10T08:50:27;8.50;88.70
68766;DHT22;55756;45.582;11.484;2022-12-10T08:52:52;8.60;88.50
68766;DHT22;55756;45.582;11.484;2022-12-10T08:55:18;8.60;88.20
68766;DHT22;55756;45.582;11.484;2022-12-10T08:57:44;8.60;88.20
68766;DHT22;55756;45.582;11.484;2022-12-10T09:00:10;8.60;87.90
68766;DHT22;55756;45.582;11.484;2022-12-10T09:02:35;8.60;88.00
68766;DHT22;55756;45.582;11.484;2022-12-10T09:05:01;8.70;88.30
68766;DHT22;55756;45.582;11.484;2022-12-10T09:07:27;8.70;88.50
68766;DHT22;55756;45.582;11.484;2022-12-10T09:09:52;8.80;88.10
68766;DHT22;55756;45.582;11.484;2022-12-10T09:12:18;8.90;88.30
68766;DHT22;55756;45.582;11.484;2022-12-10T09:14:44;9.00;88.00
68766;DHT22;55756;45.582;11.484;2022-12-10T09:17:09;9.00;88.10
68766;DHT22;55756;45.582;11.484;2022-12-10T09:19:35;9.00;87.80
68766;DHT22;55756;45.582;11.484;2022-12-10T09:22:01;9.00;88.10
68766;DHT22;55756;45.582;11.484;2022-12-10T09:24:26;9.00;87.80
68766;DHT22;55756;45.582;11.484;2022-12-10T09:26:52;9.10;87.70
68766;DHT22;55756;45.582;11.484;2022-12-10T09:29:18;9.30;87.50
68766;DHT22;55756;45.582;11.484;2022-12-10T09:31:43;9.30;87.40
68766;DHT22;55756;45.582;11.484;2022-12-10T09:34:09;9.20;87.40
68766;DHT22;55756;45.582;11.484;2022-12-10T09:36:35;9.30;87.50
68766;DHT22;55756;45.582;11.484;2022-12-10T09:39:01;9.40;87.50
68766;DHT22;55756;45.582;11.484;2022-12-10T09:43:54;9.50;86.90
68766;DHT22;55756;45.582;11.484;2022-12-10T09:46:26;9.50;86.80
68766;DHT22;55756;45.582;11.484;2022-12-10T09:52:02;9.70;87.00
68766;DHT22;55756;45.582;11.484;2022-12-10T09:54:30;9.70;87.10
68766;DHT22;55756;45.582;11.484;2022-12-10T09:56:56;9.90;86.80
68766;DHT22;55756;45.582;11.484;2022-12-10T10:01:58;10.20;86.00
68766;DHT22;55756;45.582;11.484;2022-12-10T10:04:26;10.40;85.70
68766;DHT22;55756;45.582;11.484;2022-12-10T10:06:52;10.50;85.60
68766;DHT22;55756;45.582;11.484;2022-12-10T10:09:18;10.60;85.30
68766;DHT22;55756;45.582;11.484;2022-12-10T10:11:44;10.60;84.40
68766;DHT22;55756;45.582;11.484;2022-12-10T10:14:12;10.70;84.80
68766;DHT22;55756;45.582;11.484;2022-12-10T10:19:12;10.70;84.10
68766;DHT22;55756;45.582;11.484;2022-12-10T10:21:41;10.70;83.80
68766;DHT22;55756;45.582;11.484;2022-12-10T10:24:18;10.70;83.80
68766;DHT22;55756;45.582;11.484;2022-12-10T10:26:45;10.60;83.60
68766;DHT22;55756;45.582;11.484;2022-12-10T10:29:11;10.70;83.70
68766;DHT22;55756;45.582;11.484;2022-12-10T10:31:39;10.70;83.70
68766;DHT22;55756;45.582;11.484;2022-12-10T10:34:12;10.80;83.70
68766;DHT22;55756;45.582;11.484;2022-12-10T10:36:38;10.90;83.70
68766;DHT22;55756;45.582;11.484;2022-12-10T10:41:43;11.00;82.90
68766;DHT22;55756;45.582;11.484;2022-12-10T10:44:14;11.10;83.00
68766;DHT22;55756;45.582;11.484;2022-12-10T10:46:41;11.20;82.90
68766;DHT22;55756;45.582;11.484;2022-12-10T10:49:14;11.20;82.30
68766;DHT22;55756;45.582;11.484;2022-12-10T10:51:43;11.40;82.20
68766;DHT22;55756;45.582;11.484;2022-12-10T10:54:10;11.50;81.90
68766;DHT22;55756;45.582;11.484;2022-12-10T10:56:40;11.60;81.50
68766;DHT22;55756;45.582;11.484;2022-12-10T10:59:07;11.70;80.90
68766;DHT22;55756;45.582;11.484;2022-12-10T11:01:47;11.70;80.90
68766;DHT22;55756;45.582;11.484;2022-12-10T11:04:14;11.80;80.60
68766;DHT22;55756;45.582;11.484;2022-12-10T11:06:40;11.80;80.30
68766;DHT22;55756;45.582;11.484;2022-12-10T11:09:06;11.80;80.40
68766;DHT22;55756;45.582;11.484;2022-12-10T11:14:32;11.80;80.10
68766;DHT22;55756;45.582;11.484;2022-12-10T11:16:50;11.80;80.00
68766;DHT22;55756;45.582;11.484;2022-12-10T11:19:20;11.80;79.50
68766;DHT22;55756;45.582;11.484;2022-12-10T11:21:46;11.80;79.50
68766;DHT22;55756;45.582;11.484;2022-12-10T11:24:12;11.70;79.80
68766;DHT22;55756;45.582;11.484;2022-12-10T11:26:44;11.60;79.80
68766;DHT22;55756;45.582;11.484;2022-12-10T11:32:01;11.50;79.90
68766;DHT22;55756;45.582;11.484;2022-12-10T11:34:34;11.50;79.80
68766;DHT22;55756;45.582;11.484;2022-12-10T11:44:41;11.50;80.40
68766;DHT22;55756;45.582;11.484;2022-12-10T11:49:54;11.50;80.30
68766;DHT22;55756;45.582;11.484;2022-12-10T12:00:00;11.60;80.40
68766;DHT22;55756;45.582;11.484;2022-12-10T12:02:55;11.60;80.40
68766;DHT22;55756;45.582;11.484;2022-12-10T12:08:19;11.60;80.40
68766;DHT22;55756;45.582;11.484;2022-12-10T12:13:19;11.40;80.20
68766;DHT22;55756;45.582;11.484;2022-12-10T12:15:50;11.30;80.50
68766;DHT22;55756;45.582;11.484;2022-12-10T12:18:28;11.30;80.40
68766;DHT22;55756;45.582;11.484;2022-12-10T12:20:58;11.30;80.70
68766;DHT22;55756;45.582;11.484;2022-12-10T12:23:28;11.30;80.80
68766;DHT22;55756;45.582;11.484;2022-12-10T12:25:56;11.40;80.70
68766;DHT22;55756;45.582;11.484;2022-12-10T12:28:24;11.30;80.70
68766;DHT22;55756;45.582;11.484;2022-12-10T12:30:54;11.30;80.80
68766;DHT22;55756;45.582;11.484;2022-12-10T12:33:31;11.30;80.70
68766;DHT22;55756;45.582;11.484;2022-12-10T12:36:09;11.30;80.50
68766;DHT22;55756;45.582;11.484;2022-12-10T12:38:43;11.20;80.80
68766;DHT22;55756;45.582;11.484;2022-12-10T12:43:39;11.30;81.30
68766;DHT22;55756;45.582;11.484;2022-12-10T12:46:10;11.30;81.60
68766;DHT22;55756;45.582;11.484;2022-12-10T12:51:05;11.30;82.10
68766;DHT22;55756;45.582;11.484;2022-12-10T12:53:31;11.30;82.30
68766;DHT22;55756;45.582;11.484;2022-12-10T12:56:07;11.20;82.50
68766;DHT22;55756;45.582;11.484;2022-12-10T12:58:43;11.20;82.50
68766;DHT22;55756;45.582;11.484;2022-12-10T13:01:20;11.00;82.70
68766;DHT22;55756;45.582;11.484;2022-12-10T13:03:50;10.90;82.70
68766;DHT22;55756;45.582;11.484;2022-12-10T13:08:43;10.80;82.80
68766;DHT22;55756;45.582;11.484;2022-12-10T13:13:38;10.60;83.10
68766;DHT22;55756;45.582;11.484;2022-12-10T13:18:53;10.70;83.10
68766;DHT22;55756;45.582;11.484;2022-12-10T13:21:34;10.50;83.10
68766;DHT22;55756;45.582;11.484;2022-12-10T13:24:07;10.40;83.20
68766;DHT22;55756;45.582;11.484;2022-12-10T13:26:34;10.40;83.30
68766;DHT22;55756;45.582;11.484;2022-12-10T13:29:21;10.30;83.60
68766;DHT22;55756;45.582;11.484;2022-12-10T13:39:21;10.10;84.20
68766;DHT22;55756;45.582;11.484;2022-12-10T13:44:58;10.10;84.50
68766;DHT22;55756;45.582;11.484;2022-12-10T13:47:26;10.10;84.60
68766;DHT22;55756;45.582;11.484;2022-12-10T13:55:20;10.10;85.10
68766;DHT22;55756;45.582;11.484;2022-12-10T14:00:34;10.00;85.40
68766;DHT22;55756;45.582;11.484;2022-12-10T14:03:08;10.10;85.30
68766;DHT22;55756;45.582;11.484;2022-12-10T14:08:03;10.10;85.40
68766;DHT22;55756;45.582;11.484;2022-12-10T14:10:34;10.10;85.60
68766;DHT22;55756;45.582;11.484;2022-12-10T14:13:02;10.10;85.60
68766;DHT22;55756;45.582;11.484;2022-12-10T14:15:28;10.10;85.70
68766;DHT22;55756;45.582;11.484;2022-12-10T14:18:02;10.10;85.50
68766;DHT22;55756;45.582;11.484;2022-12-10T14:20:29;10.20;85.60
68766;DHT22;55756;45.582;11.484;2022-12-10T14:22:57;10.10;85.60
68766;DHT22;55756;45.582;11.484;2022-12-10T14:25:46;10.10;85.50
68766;DHT22;55756;45.582;11.484;2022-12-10T14:28:15;10.20;85.70
68766;DHT22;55756;45.582;11.484;2022-12-10T14:30:45;10.20;85.70
68766;DHT22;55756;45.582;11.484;2022-12-10T14:33:15;10.20;85.70
68766;DHT22;55756;45.582;11.484;2022-12-10T14:35:41;10.30;85.70
68766;DHT22;55756;45.582;11.484;2022-12-10T14:38:12;10.30;85.80
68766;DHT22;55756;45.582;11.484;2022-12-10T14:40:42;10.30;85.70
68766;DHT22;55756;45.582;11.484;2022-12-10T14:43:17;10.30;85.90
68766;DHT22;55756;45.582;11.484;2022-12-10T14:45:45;10.30;85.80
68766;DHT22;55756;45.582;11.484;2022-12-10T14:48:12;10.30;86.00
68766;DHT22;55756;45.582;11.484;2022-12-10T14:50:38;10.30;86.00
68766;DHT22;55756;45.582;11.484;2022-12-10T14:53:05;10.30;85.90
68766;DHT22;55756;45.582;11.484;2022-12-10T14:55:30;10.20;86.10
68766;DHT22;55756;45.582;11.484;2022-12-10T14:58:01;10.20;86.10
68766;DHT22;55756;45.582;11.484;2022-12-10T15:00:28;10.20;86.20
68766;DHT22;55756;45.582;11.484;2022-12-10T15:02:55;10.10;86.30
68766;DHT22;55756;45.582;11.484;2022-12-10T15:05:23;10.20;86.30
68766;DHT22;55756;45.582;11.484;2022-12-10T15:07:54;10.10;86.20
68766;DHT22;55756;45.582;11.484;2022-12-10T15:10:24;10.10;86.10
68766;DHT22;55756;45.582;11.484;2022-12-10T15:12:50;10.00;86.10
68766;DHT22;55756;45.582;11.484;2022-12-10T15:17:52;9.80;86.20
68766;DHT22;55756;45.582;11.484;2022-12-10T15:20:19;9.90;86.30
68766;DHT22;55756;45.582;11.484;2022-12-10T15:22:46;9.80;86.40
68766;DHT22;55756;45.582;11.484;2022-12-10T15:25:29;9.80;86.30
68766;DHT22;55756;45.582;11.484;2022-12-10T15:27:56;9.80;86.20
68766;DHT22;55756;45.582;11.484;2022-12-10T15:30:23;9.70;86.40
68766;DHT22;55756;45.582;11.484;2022-12-10T15:32:49;9.70;86.30
68766;DHT22;55756;45.582;11.484;2022-12-10T15:35:14;9.70;86.30
68766;DHT22;55756;45.582;11.484;2022-12-10T15:37:40;9.70;86.40
68766;DHT22;55756;45.582;11.484;2022-12-10T15:40:21;9.70;86.30
68766;DHT22;55756;45.582;11.484;2022-12-10T15:42:47;9.60;86.30
68766;DHT22;55756;45.582;11.484;2022-12-10T15:47:44;9.60;86.10
68766;DHT22;55756;45.582;11.484;2022-12-10T15:50:10;9.50;86.30
68766;DHT22;55756;45.582;11.484;2022-12-10T15:52:36;9.50;86.10
68766;DHT22;55756;45.582;11.484;2022-12-10T15:55:01;9.50;86.20
68766;DHT22;55756;45.582;11.484;2022-12-10T15:57:29;9.50;86.40
68766;DHT22;55756;45.582;11.484;2022-12-10T15:59:56;9.50;86.30
68766;DHT22;55756;45.582;11.484;2022-12-10T16:02:35;9.40;86.30
68766;DHT22;55756;45.582;11.484;2022-12-10T16:05:03;9.40;86.60
68766;DHT22;55756;45.582;11.484;2022-12-10T16:07:34;9.40;86.50
68766;DHT22;55756;45.582;11.484;2022-12-10T16:10:00;9.40;86.70
68766;DHT22;55756;45.582;11.484;2022-12-10T16:12:26;9.30;86.90
68766;DHT22;55756;45.582;11.484;2022-12-10T16:14:52;9.30;86.70
68766;DHT22;55756;45.582;11.484;2022-12-10T16:17:21;9.30;86.90
68766;DHT22;55756;45.582;11.484;2022-12-10T16:19:47;9.30;86.90
68766;DHT22;55756;45.582;11.484;2022-12-10T16:22:13;9.30;86.90
68766;DHT22;55756;45.582;11.484;2022-12-10T16:24:39;9.30;87.00
68766;DHT22;55756;45.582;11.484;2022-12-10T16:27:09;9.40;86.90
68766;DHT22;55756;45.582;11.484;2022-12-10T16:29:36;9.40;87.20
68766;DHT22;55756;45.582;11.484;2022-12-10T16:32:02;9.50;87.00
68766;DHT22;55756;45.582;11.484;2022-12-10T16:34:27;9.40;86.90
68766;DHT22;55756;45.582;11.484;2022-12-10T16:36:53;9.40;87.10
68766;DHT22;55756;45.582;11.484;2022-12-10T16:39:19;9.40;87.10
68766;DHT22;55756;45.582;11.484;2022-12-10T16:41:50;9.50;87.10
68766;DHT22;55756;45.582;11.484;2022-12-10T16:44:16;9.40;87.10
68766;DHT22;55756;45.582;11.484;2022-12-10T16:46:42;9.50;87.10
68766;DHT22;55756;45.582;11.484;2022-12-10T16:49:08;9.40;87.30
68766;DHT22;55756;45.582;11.484;2022-12-10T16:51:33;9.50;87.20
68766;DHT22;55756;45.582;11.484;2022-12-10T16:54:00;9.50;87.40
68766;DHT22;55756;45.582;11.484;2022-12-10T16:56:25;9.50;87.30
68766;DHT22;55756;45.582;11.484;2022-12-10T16:58:51;9.50;87.50
68766;DHT22;55756;45.582;11.484;2022-12-10T17:01:19;9.40;87.50
68766;DHT22;55756;45.582;11.484;2022-12-10T17:03:45;9.40;87.50
68766;DHT22;55756;45.582;11.484;2022-12-10T17:06:11;9.40;87.90
68766;DHT22;55756;45.582;11.484;2022-12-10T17:08:37;9.50;87.70